AirNav   Airventure
 
 652 users online  

7GA8 Emory University Hospital Heliport
Atlanta, Georgia, USA

GOING TO ATLANTA?


FAA INFORMATION EFFECTIVE 20 JULY 2017

Location

FAA Identifier: 7GA8
Lat/Long: 33-47-30.9100N / 084-19-21.3100W
33-47.515167N / 084-19.355167W
33.7919194 / -84.3225861
(estimated)
Elevation: 1051 ft. / 320 m (estimated)
Variation: 02W (1985)
Time zone: UTC -4 (UTC -5 during Standard Time)
Zip code: 30322

Heliport Operations

Heliport use: Private use, MEDICAL USE.
Activation date: 05/1991
Control tower: no
ARTCC: ATLANTA CENTER
FSS: MACON FLIGHT SERVICE STATION
Attendance: UNATNDD
PPR 45 MINUTES TO LAND; CALL TRIAGE NURSE/ADMIN SUPVR 404-686-5500 ASK FOR PIC 23648 NR .
Wind indicator: yes
Segmented circle: no
Lights: ACTVT PERIMETER LIGHTS - 123.05.
Beacon: white-green-yellow (heliport)
ACTVT ROTG BCN - 123.05.

Heliport Communications

WX ASOS at PDK (5 nm N): PHONE 770-457-1691
WX ASOS at FTY (10 nm W): PHONE 404-696-5660
WX ASOS at ATL (11 nm SW): PHONE 404-762-1121
WX AWOS-3 at RYY (19 nm NW): PHONE 770-425-3406

Nearby radio navigation aids

VOR radial/distance  VOR name  Freq  Var
PDKr198/5.2PEACHTREE VOR/DME116.6005W
ATLr035/11.3ATLANTA VORTAC116.9005W

 
NDB name  Hdg/Dist  Freq  Var  ID
ALCOVY293/28.737003WVOF ...- --- ..-.
CHERO168/28.841505WDJD -.. .--- -..
MONROE279/29.939203WJNM .--- -. --
PECAT021/30.631605WFFC ..-. ..-. -.-.
FLOWERY BRANCH223/32.236503WFKV ..-. -.- ...-
CARTERSVILLE137/35.630804WEVZ . ...- --..
BARROW COUNTY262/37.540405WBMW -... -- .--
COWETA COUNTY034/37.623403WEQQ . --.- --.-

Heliport Services

Runway Information

Helipad H1

Dimensions: 39 x 39 ft. / 12 x 12 m
Surface: concrete
ROOFTOP PAD.
Runway edge lights: PERIMETER LIGHTS.
Latitude: 33-47.515167N
Longitude: 084-19.355167W
Elevation: 1051.0 ft.
Traffic pattern: leftleft

Heliport Ownership and Management from official FAA records

Ownership: Privately-owned
Owner: EMORY UNIVERSITY HOSPITAL
1364 CLIFTON ROAD NE
ATLANTA, GA 30322
Phone 404-727-4881
Manager: EMORY UNIVERSITY HOSPITAL
1364 CLIFTON ROAD NE
ATLANTA, GA 30322
Phone (404) 712-2626
404-686-1000

Additional Remarks

FOR NOISE ABATEMENT USE STEEP APCH ANGLE, MAINTAIN 100 FT AGL IF POSSIBLE BUT NO LESS THAN 500 FT AGL UNTIL APCH ANGLE IS INTERCEPTED; ALL APCH/DEP ALONG 150/330.
MAXIMUM ACFT WEIGHT 10000 LBS.
A52-H1 11 STORY BLDG 23 FT NE; 12 FT TOWERS 29 FT SOUTH; 42 INCH FENCE 9 FT EAST; 42 INCH FENCE 0 FT SW OF HELIPAD.

Instrument Procedures

There are no published instrument procedures at 7GA8.

Some nearby airports with instrument procedures:

KPDK - Dekalb-Peachtree Airport (5 nm N)
KFTY - Fulton County Airport-Brown Field (10 nm W)
KATL - Hartsfield - Jackson Atlanta International Airport (11 nm SW)
KMGE - Dobbins Air Reserve Base (12 nm NW)
KRYY - Cobb County International Airport-McCollum Field (19 nm NW)
 
Loc | Ops | Rwys | IFR | FBO | Links
Com | Nav | Svcs | Stats | Notes


 
Area around 7GA8 (Emory University Hospital Heliport)
 
Road maps at: MapQuest Bing Google
 
Aerial photo
WARNING: Photo may not be current or correct
Aerial photo of 7GA8 (Emory University Hospital Heliport)
Do you have a better or more recent aerial photo of Emory University Hospital Heliport that you would like to share? If so, please send us your photo.

 
Sectional chart

 
Airport distance calculator
Flying to Emory University Hospital Heliport? Find the distance to fly.

From to 7GA8

Sunrise and sunset
Times for 21-Jul-2017
 Local
(UTC-4)
 Zulu
(UTC)
Morning civil twilight06:1410:14
Sunrise06:4210:42
Sunset20:4500:45
Evening civil twilight21:1301:13

Current date and time
Zulu (UTC)  21-Jul-2017 11:32:03
Local (UTC-4)  21-Jul-2017 07:32:03
 
METAR
KPDK 
6nm N 
211122Z 00000KT 10SM CLR 23/22 A3005 RMK AO2 T02330222
KFTY 
10nm W 
211053Z 00000KT 5SM BR CLR 23/23 A3004 RMK AO2 SLP160 T02280228
KATL 
11nm SW 
211052Z 34004KT 10SM FEW050 SCT250 25/23 A3004 RMK AO2 SLP160 T02500228
KMGE 
12nm NW 
211058Z 30003KT 10SM FEW170 FEW250 23/22 A3005 RMK AO2A SLP165 T02340221 $
KRYY 
19nm NW 
211047Z 00000KT 10SM SKC 23/22 A3005
TAF
KPDK 
6nm N 
210917Z 2109/2206 00000KT 4SM BR SCT250 FM211400 29003KT P6SM FEW040 FM211700 20006KT P6SM SCT050 FM212000 19007KT P6SM VCSH SCT060 FM220100 VRB03KT P6SM FEW060
KFTY 
10nm W 
210530Z 2106/2206 VRB03KT P6SM SCT250 FM211400 29003KT P6SM FEW040 FM211700 20006KT P6SM SCT050 FM212000 19007KT P6SM VCSH SCT060 FM220100 VRB03KT P6SM FEW060
KATL 
11nm SW 
210959Z 2110/2212 31006KT P6SM FEW045 SCT250 FM211400 29004KT P6SM SCT040 FM211700 20008KT P6SM SCT050 FM212000 19008KT P6SM VCSH SCT060 FM220100 21003KT P6SM FEW060
KMGE 
12nm NW 
210500Z 2105/2211 30006KT 9999 FEW030 QNH2995INS BECMG 2115/2116 26006KT 9999 SCT040 QNH2998INS BECMG 2119/2120 21006KT 8000 -SHRA VCTS BKN040CB BKN250 QNH3003INS BECMG 2200/2201 22006KT 9999 NSW SCT040 QNH2999INS BECMG 2205/2206 19003KT 9999 FEW030 QNH3000INS TX35/2118Z TN22/2109Z
KRYY 
19nm NW 
210530Z 2106/2206 VRB03KT P6SM SCT250 FM211400 29003KT P6SM FEW040 FM211700 20006KT P6SM SCT050 FM212000 19007KT P6SM VCSH SCT060 FM220100 21003KT P6SM FEW060 AMD NOT SKED TIL 211200
NOTAMs
Click for the latest NOTAMs
NOTAMs are issued by the DoD/FAA and will open in a separate window not controlled by AirNav.

 

 
 

Would you like to see your business listed on this page?

 If your business provides an interesting product or service to pilots, flight crews, aircraft, or users of the Emory University Hospital Heliport, you should consider listing it here.  To start the listing process, click on the button below
 
Add a business
 

Other Pages about Emory University Hospital Heliport

Update a link
 
Copyright © AirNav, LLC. All rights reserved. Privacy Policy  Contact